Time;durP1;ratioP1;P1;durP2;ratioP2;P2;SDS_P1;SDS_P2;PMS_P1;PMS_P2;Temp;Humidity;BMP_temperature;BMP_pressure;BME280_temperature;BME280_humidity;BME280_pressure;Samples;Min_cycle;Max_cycle;Signal;HPM_P1;HPM_P2
2021/10/24 00:02:25;;;;;;;5.50;3.10;;;;;;;4.39;80.56;102177.66;5076014;28;20205;-84
2021/10/24 00:04:52;;;;;;;7.70;3.40;;;;;;;4.42;80.94;102179.41;5076337;28;20651;-83
2021/10/24 00:07:19;;;;;;;8.47;3.13;;;;;;;4.42;80.62;102175.00;5076398;28;20211;-84
2021/10/24 00:09:45;;;;;;;5.67;3.33;;;;;;;4.44;81.50;102173.22;5076478;28;20593;-84
2021/10/24 00:12:13;;;;;;;9.77;3.67;;;;;;;4.48;81.61;102177.53;5089581;28;20291;-83
2021/10/24 00:14:40;;;;;;;8.87;3.50;;;;;;;4.51;81.28;102171.34;5078454;28;20311;-83
2021/10/24 00:17:07;;;;;;;7.93;2.87;;;;;;;4.52;81.28;102168.69;5076424;28;20204;-83
2021/10/24 00:19:34;;;;;;;4.77;3.17;;;;;;;4.54;82.02;102166.03;5076209;28;20652;-83
2021/10/24 00:22:00;;;;;;;5.37;3.47;;;;;;;4.58;81.82;102174.78;5083582;28;20229;-82
2021/10/24 00:24:27;;;;;;;6.83;3.37;;;;;;;4.62;82.19;102163.28;5081463;28;20201;-84
2021/10/24 00:26:57;;;;;;;5.60;2.93;;;;;;;4.63;82.40;102163.28;5075384;28;20215;-82
2021/10/24 00:29:25;;;;;;;10.43;3.60;;;;;;;4.67;82.42;102170.22;5075192;28;20235;-84
2021/10/24 00:31:51;;;;;;;8.00;3.60;;;;;;;4.68;82.76;102156.13;5058074;28;20209;-83
2021/10/24 00:34:18;;;;;;;9.90;3.37;;;;;;;4.69;82.19;102160.53;5055049;28;20582;-82
2021/10/24 00:36:45;;;;;;;5.77;3.33;;;;;;;4.70;82.27;102159.63;5055850;28;20198;-83
2021/10/24 00:39:11;;;;;;;9.97;3.40;;;;;;;4.72;82.36;102156.97;5070330;28;20223;-83
2021/10/24 00:41:38;;;;;;;9.53;3.70;;;;;;;4.72;82.69;102152.56;5075868;28;20272;-82
2021/10/24 00:44:20;;;;;;;5.07;3.40;;;;;;;4.73;83.06;102150.78;5075157;28;20296;-82
2021/10/24 00:46:48;;;;;;;7.37;3.77;;;;;;;4.73;83.01;102154.31;5065342;28;20224;-83
2021/10/24 00:49:15;;;;;;;7.20;3.13;;;;;;;4.72;82.89;102149.91;5075048;28;20235;-83
2021/10/24 00:51:42;;;;;;;7.90;3.43;;;;;;;4.72;83.03;102147.28;5071459;28;20663;-83
2021/10/24 00:54:12;;;;;;;6.30;3.37;;;;;;;4.70;82.93;102142.91;5055993;28;20203;-82
2021/10/24 00:56:40;;;;;;;6.93;3.10;;;;;;;4.69;83.04;102139.41;5072265;28;20671;-83
2021/10/24 00:59:07;;;;;;;7.17;3.37;;;;;;;4.70;83.12;102142.91;5075050;28;20221;-83
2021/10/24 01:01:33;;;;;;;7.77;3.10;;;;;;;4.68;83.01;102142.94;5074094;28;20292;-85
2021/10/24 01:04:03;;;;;;;6.50;3.10;;;;;;;4.67;82.55;102142.97;5070793;28;20217;-83
2021/10/24 01:06:30;;;;;;;9.67;3.07;;;;;;;4.67;82.78;102140.31;5062552;28;20224;-83
2021/10/24 01:08:57;;;;;;;6.17;2.70;;;;;;;4.65;83.23;102135.09;5074390;28;20264;-83
2021/10/24 01:11:25;;;;;;;8.53;2.93;;;;;;;4.64;82.78;102145.66;5067847;28;20209;-83
2021/10/24 01:13:52;;;;;;;6.70;2.97;;;;;;;4.63;82.87;102136.88;5054916;28;20627;-82
2021/10/24 01:16:19;;;;;;;5.80;3.37;;;;;;;4.62;82.81;102132.50;5064025;28;20678;-82
2021/10/24 01:18:46;;;;;;;7.97;3.40;;;;;;;4.61;83.07;102137.78;5073092;28;20233;-82
2021/10/24 01:21:15;;;;;;;8.47;3.40;;;;;;;4.61;82.97;102140.44;5069652;28;20571;-82
2021/10/24 01:23:41;;;;;;;7.40;3.30;;;;;;;4.57;83.30;102142.25;5074447;28;20216;-82
2021/10/24 01:26:08;;;;;;;8.80;3.27;;;;;;;4.56;82.83;102142.25;5074312;28;20220;-83
2021/10/24 01:28:35;;;;;;;8.90;3.30;;;;;;;4.54;83.06;102129.09;5055353;28;20218;-86
2021/10/24 01:31:03;;;;;;;6.63;3.17;;;;;;;4.53;83.20;102141.41;5055978;28;20630;-85
2021/10/24 01:33:30;;;;;;;6.63;3.07;;;;;;;4.51;82.94;102139.69;5055436;28;20551;-84
2021/10/24 01:35:59;;;;;;;7.00;2.90;;;;;;;4.48;82.87;102134.44;5057057;28;20216;-85
2021/10/24 01:38:27;;;;;;;7.50;3.30;;;;;;;4.44;82.88;102138.91;5075309;28;20233;-84
2021/10/24 01:40:56;;;;;;;9.13;3.53;;;;;;;4.41;82.82;102131.03;5075321;28;20212;-84
2021/10/24 01:43:24;;;;;;;7.07;3.53;;;;;;;4.39;82.76;102137.22;5075723;28;20209;-85
2021/10/24 01:45:52;;;;;;;8.20;4.00;;;;;;;4.34;82.45;102131.13;5074862;28;20204;-85
2021/10/24 01:48:19;;;;;;;5.73;3.53;;;;;;;4.28;82.26;102125.97;5074118;28;20209;-84
2021/10/24 01:50:46;;;;;;;8.17;3.83;;;;;;;4.22;82.50;102128.69;5074682;28;20229;-83
2021/10/24 01:53:17;;;;;;;9.17;3.73;;;;;;;4.17;82.55;102134.00;5060477;28;20703;-83
2021/10/24 01:55:45;;;;;;;6.90;4.00;;;;;;;4.12;82.01;102120.03;5075111;28;20184;-84
2021/10/24 01:58:12;;;;;;;6.53;3.47;;;;;;;4.08;82.47;102120.97;5074831;28;20689;-83
2021/10/24 02:00:40;;;;;;;7.40;4.23;;;;;;;4.03;82.00;102115.75;5074657;28;20702;-84
2021/10/24 02:03:07;;;;;;;7.23;4.10;;;;;;;3.98;82.13;102114.03;5060204;28;20205;-85
2021/10/24 02:05:34;;;;;;;6.90;4.07;;;;;;;3.96;82.33;102103.50;5073753;28;20208;-84
2021/10/24 02:08:00;;;;;;;8.00;4.50;;;;;;;3.95;82.33;102111.44;5079586;28;20208;-83
2021/10/24 02:10:27;;;;;;;9.60;3.73;;;;;;;3.93;82.09;102105.34;5075444;28;20315;-83
2021/10/24 02:12:56;;;;;;;5.97;3.80;;;;;;;3.92;81.96;102101.84;5079798;28;20671;-83
2021/10/24 02:15:23;;;;;;;8.10;3.40;;;;;;;3.89;82.10;102101.88;5082025;28;20208;-83
2021/10/24 02:17:50;;;;;;;9.53;3.73;;;;;;;3.90;81.62;102103.63;5082458;28;20254;-84
2021/10/24 02:20:16;;;;;;;7.90;3.63;;;;;;;3.90;82.69;102108.00;5068893;28;20250;-83
2021/10/24 02:22:43;;;;;;;8.17;3.33;;;;;;;3.89;82.23;102103.63;5072209;28;20300;-84
2021/10/24 02:25:11;;;;;;;8.87;4.27;;;;;;;3.89;82.26;102104.50;5070244;28;20200;-83
2021/10/24 02:27:38;;;;;;;9.87;3.87;;;;;;;3.90;82.65;102106.25;5085582;28;20215;-83
2021/10/24 02:30:08;;;;;;;7.83;4.57;;;;;;;3.92;82.81;102101.84;5084041;28;20718;-84
2021/10/24 02:32:34;;;;;;;9.97;3.83;;;;;;;3.94;83.40;102102.66;5072578;28;20255;-84
2021/10/24 02:35:01;;;;;;;7.17;4.00;;;;;;;3.95;83.40;102106.16;5082771;28;20192;-83
2021/10/24 02:37:28;;;;;;;8.57;3.83;;;;;;;3.97;83.25;102102.63;5083118;28;20211;-85
2021/10/24 02:39:55;;;;;;;6.50;3.50;;;;;;;3.98;83.22;102112.28;5084646;28;20770;-83
2021/10/24 02:42:21;;;;;;;9.50;3.90;;;;;;;3.97;83.96;102107.03;5083590;28;20211;-83
2021/10/24 02:44:48;;;;;;;9.00;3.70;;;;;;;3.94;83.19;102102.66;5083617;28;20255;-83
2021/10/24 02:47:17;;;;;;;7.23;4.30;;;;;;;3.90;83.59;102095.72;5082600;28;20211;-84
2021/10/24 02:49:44;;;;;;;6.43;3.43;;;;;;;3.83;83.35;102097.53;5080871;28;20270;-83
2021/10/24 02:52:11;;;;;;;9.10;4.27;;;;;;;3.77;82.91;102105.50;5081237;28;20200;-82
2021/10/24 02:54:38;;;;;;;7.47;3.73;;;;;;;3.71;82.51;102102.97;5081422;28;20545;-86
2021/10/24 02:57:05;;;;;;;6.80;3.67;;;;;;;3.65;83.19;102103.03;5079241;28;20551;-86
2021/10/24 02:59:32;;;;;;;6.30;3.90;;;;;;;3.61;82.60;102100.44;5083890;28;20221;-85
2021/10/24 03:01:58;;;;;;;4.57;3.40;;;;;;;3.57;83.27;102097.00;5083981;28;20654;-85
2021/10/24 03:04:27;;;;;;;7.20;3.90;;;;;;;3.54;82.42;102090.88;5082925;28;20264;-87
2021/10/24 03:06:53;;;;;;;4.80;3.63;;;;;;;3.51;82.80;102083.00;5080081;28;20208;-86
2021/10/24 03:09:21;;;;;;;8.17;4.10;;;;;;;3.49;82.58;102086.53;5079284;28;20307;-86
2021/10/24 03:11:47;;;;;;;6.73;4.30;;;;;;;3.46;82.64;102093.59;5079085;28;20204;-86
2021/10/24 03:14:14;;;;;;;6.37;4.47;;;;;;;3.45;82.92;102097.97;5065630;28;20216;-86
2021/10/24 03:16:41;;;;;;;11.20;3.93;;;;;;;3.43;82.69;102091.84;5079165;28;20285;-86
2021/10/24 03:19:07;;;;;;;6.17;4.37;;;;;;;3.42;83.19;102095.38;5075299;28;20312;-86
2021/10/24 03:21:35;;;;;;;9.50;4.00;;;;;;;3.41;83.62;102093.63;5080466;28;20208;-86
2021/10/24 03:24:04;;;;;;;6.90;3.60;;;;;;;3.41;83.74;102093.63;5061392;28;20240;-86
2021/10/24 03:26:31;;;;;;;8.33;3.83;;;;;;;3.44;83.38;102095.38;5076036;28;20204;-86
2021/10/24 03:28:58;;;;;;;7.10;3.83;;;;;;;3.45;83.17;102091.84;5075406;28;20235;-85
2021/10/24 03:31:25;;;;;;;5.47;3.60;;;;;;;3.48;83.67;102092.69;5065480;28;20225;-87
2021/10/24 03:33:52;;;;;;;5.67;3.83;;;;;;;3.52;83.56;102084.75;5070054;28;20606;-87
2021/10/24 03:36:19;;;;;;;7.33;4.27;;;;;;;3.55;83.76;102084.72;5061942;28;20205;-85
2021/10/24 03:38:47;;;;;;;6.37;4.13;;;;;;;3.59;84.27;102083.78;5075622;28;20235;-86
2021/10/24 03:41:14;;;;;;;7.87;3.97;;;;;;;3.61;84.10;102082.88;5074117;28;20291;-86
2021/10/24 03:43:41;;;;;;;7.77;4.23;;;;;;;3.63;84.61;102086.38;5075514;28;20216;-85
2021/10/24 03:46:08;;;;;;;7.93;4.20;;;;;;;3.66;84.81;102091.59;5077412;28;20200;-86
2021/10/24 03:48:34;;;;;;;8.93;4.40;;;;;;;3.67;84.79;102080.19;5076882;28;20599;-86
2021/10/24 03:51:01;;;;;;;7.73;4.13;;;;;;;3.71;84.78;102094.19;5077314;28;20255;-86
2021/10/24 03:53:27;;;;;;;6.87;3.97;;;;;;;3.71;84.44;102086.28;5077536;28;20213;-86
2021/10/24 03:55:55;;;;;;;5.63;3.53;;;;;;;3.70;84.50;102095.06;5076987;28;20206;-86
2021/10/24 03:58:22;;;;;;;6.00;3.83;;;;;;;3.69;85.16;102088.06;5075738;28;20235;-87
2021/10/24 04:00:49;;;;;;;6.93;4.00;;;;;;;3.66;85.11;102083.69;5077288;28;20229;-86
2021/10/24 04:03:15;;;;;;;8.33;3.17;;;;;;;3.68;85.07;102091.59;5073411;28;20204;-87
2021/10/24 04:05:47;;;;;;;8.40;4.13;;;;;;;3.68;84.99;102094.22;5069880;28;20197;-86
2021/10/24 04:08:14;;;;;;;7.07;4.10;;;;;;;3.67;84.97;102085.44;5084583;28;20581;-85
2021/10/24 04:10:40;;;;;;;10.33;3.80;;;;;;;3.68;85.24;102081.91;5089961;28;20232;-86
2021/10/24 04:13:08;;;;;;;10.03;4.73;;;;;;;3.70;85.30;102079.28;5083417;28;20197;-86
2021/10/24 04:15:35;;;;;;;9.43;4.77;;;;;;;3.70;85.44;102087.19;5073384;28;20731;-84
2021/10/24 04:18:01;;;;;;;8.07;3.80;;;;;;;3.72;85.29;102082.75;5060316;28;20288;-85
2021/10/24 04:20:28;;;;;;;9.27;4.07;;;;;;;3.72;85.05;102080.13;5061826;28;20205;-86
2021/10/24 04:22:55;;;;;;;10.83;4.07;;;;;;;3.70;85.10;102074.00;5069675;28;20235;-85
2021/10/24 04:25:24;;;;;;;6.70;3.70;;;;;;;3.70;85.00;102074.88;5079654;28;20212;-85
2021/10/24 04:27:51;;;;;;;6.87;3.23;;;;;;;3.71;85.45;102070.47;5066284;28;20214;-85
2021/10/24 04:30:19;;;;;;;6.67;3.67;;;;;;;3.70;85.18;102072.25;5069414;28;20232;-86
2021/10/24 04:32:46;;;;;;;8.47;4.00;;;;;;;3.69;85.09;102074.88;5070173;28;20210;-86
2021/10/24 04:35:13;;;;;;;6.60;3.93;;;;;;;3.68;85.21;102068.75;5058437;28;20698;-86
2021/10/24 04:37:40;;;;;;;7.77;3.50;;;;;;;3.68;85.62;102071.38;5060062;28;20198;-86
2021/10/24 04:40:08;;;;;;;9.33;3.77;;;;;;;3.69;85.40;102069.63;5066816;28;20242;-86
2021/10/24 04:42:35;;;;;;;7.23;4.23;;;;;;;3.68;85.77;102073.16;5074491;28;20292;-86
2021/10/24 04:45:04;;;;;;;5.53;3.90;;;;;;;3.70;85.68;102061.69;5075250;28;20273;-86
2021/10/24 04:47:32;;;;;;;7.63;4.00;;;;;;;3.72;85.33;102066.97;5077486;28;20209;-86
2021/10/24 04:49:58;;;;;;;8.67;4.23;;;;;;;3.74;85.15;102057.28;5074785;28;20229;-86
2021/10/24 04:52:25;;;;;;;7.83;4.03;;;;;;;3.76;85.71;102064.25;5065492;28;20206;-86
2021/10/24 04:54:51;;;;;;;6.73;3.70;;;;;;;3.75;85.71;102054.63;5071066;28;20268;-86
2021/10/24 04:57:18;;;;;;;10.17;3.63;;;;;;;3.78;85.66;102056.31;5063501;28;20215;-86
2021/10/24 04:59:45;;;;;;;7.33;3.93;;;;;;;3.81;85.66;102064.19;5072245;28;20229;-86
2021/10/24 05:02:11;;;;;;;9.80;4.60;;;;;;;3.80;85.35;102055.41;5078621;28;20208;-86
2021/10/24 05:04:39;;;;;;;9.93;4.63;;;;;;;3.82;85.56;102063.28;5065975;28;20652;-86
2021/10/24 05:07:06;;;;;;;7.73;3.93;;;;;;;3.81;85.57;102062.44;5065483;28;20739;-85
2021/10/24 05:09:32;;;;;;;10.37;3.50;;;;;;;3.82;85.29;102060.66;5074658;28;20671;-85
2021/10/24 05:11:59;;;;;;;8.60;4.00;;;;;;;3.82;86.11;102053.63;5062509;28;20225;-86
2021/10/24 05:14:25;;;;;;;7.87;3.77;;;;;;;3.83;86.09;102054.50;5060527;28;20202;-85
2021/10/24 05:16:52;;;;;;;8.90;3.63;;;;;;;3.83;85.80;102057.13;5065099;28;20313;-85
2021/10/24 05:19:18;;;;;;;8.63;3.67;;;;;;;3.83;85.90;102057.13;5080683;28;20878;-85
2021/10/24 05:21:46;;;;;;;7.53;3.53;;;;;;;3.84;85.84;102058.88;5066215;28;20197;-85
2021/10/24 05:24:13;;;;;;;8.93;3.73;;;;;;;3.83;85.28;102059.78;5065420;28;20212;-85
2021/10/24 05:26:40;;;;;;;5.63;3.70;;;;;;;3.80;85.25;102055.41;5069142;28;20233;-85
2021/10/24 05:29:06;;;;;;;9.53;3.77;;;;;;;3.81;85.51;102057.16;5074936;28;20308;-86
2021/10/24 05:31:33;;;;;;;7.03;4.23;;;;;;;3.81;85.22;102056.28;5069333;28;20703;-86
2021/10/24 05:33:59;;;;;;;6.83;3.90;;;;;;;3.80;85.02;102054.53;5071973;28;20204;-85
2021/10/24 05:36:26;;;;;;;9.90;4.10;;;;;;;3.82;85.44;102058.03;5077313;28;20268;-86
2021/10/24 05:38:54;;;;;;;7.07;4.13;;;;;;;3.81;85.66;102048.38;5070261;28;20233;-86
2021/10/24 05:41:20;;;;;;;8.27;4.03;;;;;;;3.81;85.31;102043.09;5075327;28;20244;-87
2021/10/24 05:43:47;;;;;;;8.30;3.37;;;;;;;3.81;85.44;102053.66;5072484;28;20646;-86
2021/10/24 05:46:14;;;;;;;9.97;3.93;;;;;;;3.80;85.39;102050.13;5069114;28;20201;-86
2021/10/24 05:48:40;;;;;;;8.93;3.37;;;;;;;3.82;85.13;102058.03;5067084;28;20225;-86
2021/10/24 05:51:09;;;;;;;10.13;4.20;;;;;;;3.80;85.15;102046.63;5070486;28;20319;-87
2021/10/24 05:53:35;;;;;;;7.87;3.30;;;;;;;3.80;84.91;102044.88;5056063;28;20209;-86
2021/10/24 05:56:03;;;;;;;5.27;3.57;;;;;;;3.81;85.67;102048.38;5059328;28;20655;-86
2021/10/24 05:58:30;;;;;;;9.03;3.67;;;;;;;3.81;85.14;102048.38;5066307;28;20239;-85
2021/10/24 06:00:56;;;;;;;6.73;3.50;;;;;;;3.80;85.69;102050.13;5072094;28;20300;-87
2021/10/24 06:03:23;;;;;;;8.43;3.87;;;;;;;3.80;85.66;102044.00;5074267;28;20201;-86
2021/10/24 06:05:49;;;;;;;8.13;4.10;;;;;;;3.78;85.01;102040.50;5072795;28;20205;-85
2021/10/24 06:08:23;;;;;;;7.50;3.70;;;;;;;3.79;84.91;102050.16;5094309;28;20203;-85
2021/10/24 06:10:50;;;;;;;6.77;3.60;;;;;;;3.78;85.01;102045.78;5076867;28;20213;-86
2021/10/24 06:13:18;;;;;;;8.03;3.97;;;;;;;3.76;85.58;102040.53;5065787;28;20604;-86
2021/10/24 06:15:45;;;;;;;8.00;3.77;;;;;;;3.75;84.88;102041.44;5078387;28;20207;-85
2021/10/24 06:18:12;;;;;;;8.00;3.73;;;;;;;3.75;84.86;102046.72;5070108;28;20212;-86
2021/10/24 06:20:39;;;;;;;6.47;3.77;;;;;;;3.74;85.26;102039.69;5077376;28;20209;-85
2021/10/24 06:23:06;;;;;;;8.03;3.83;;;;;;;3.75;85.28;102041.44;5071238;28;20252;-87
2021/10/24 06:25:32;;;;;;;7.47;3.67;;;;;;;3.75;85.21;102046.72;5076979;28;20208;-86
2021/10/24 06:27:59;;;;;;;9.40;3.97;;;;;;;3.76;85.24;102042.31;5076794;28;20228;-86
2021/10/24 06:30:27;;;;;;;8.70;4.00;;;;;;;3.77;85.02;102044.03;5074203;28;20243;-86
2021/10/24 06:32:54;;;;;;;6.30;4.10;;;;;;;3.79;84.77;102044.88;5058651;28;20221;-86
2021/10/24 06:35:20;;;;;;;7.07;4.13;;;;;;;3.79;84.68;102047.53;5069606;28;20216;-86
2021/10/24 06:37:48;;;;;;;7.93;4.10;;;;;;;3.81;85.64;102045.75;5075907;28;20703;-86
2021/10/24 06:40:17;;;;;;;7.87;3.67;;;;;;;3.81;84.82;102048.38;5069298;28;20232;-86
2021/10/24 06:42:44;;;;;;;11.70;3.87;;;;;;;3.83;84.83;102049.22;5072670;28;20197;-86
2021/10/24 06:45:12;;;;;;;10.73;4.13;;;;;;;3.82;85.10;102048.34;5077390;28;20301;-86
2021/10/24 06:47:40;;;;;;;9.50;4.27;;;;;;;3.82;85.10;102048.34;5076432;28;20291;-86
2021/10/24 06:50:09;;;;;;;8.70;4.77;;;;;;;3.83;85.55;102047.47;5073765;28;20228;-86
2021/10/24 06:52:35;;;;;;;5.87;4.37;;;;;;;3.84;85.21;102051.84;5064763;28;20316;-86
2021/10/24 06:55:02;;;;;;;7.87;3.87;;;;;;;3.85;85.49;102050.09;5075849;28;20277;-85
2021/10/24 06:57:29;;;;;;;7.07;4.20;;;;;;;3.86;85.17;102048.31;5063418;28;20300;-85
2021/10/24 06:59:55;;;;;;;6.17;3.77;;;;;;;3.87;84.64;102056.22;5078845;28;20311;-85
2021/10/24 07:02:22;;;;;;;8.33;4.07;;;;;;;3.87;84.73;102061.47;5080866;28;20205;-86
2021/10/24 07:04:50;;;;;;;7.23;3.70;;;;;;;3.88;85.32;102057.97;5079916;28;20296;-85
2021/10/24 07:07:20;;;;;;;9.33;3.77;;;;;;;3.89;85.38;102054.44;5064676;28;20229;-86
2021/10/24 07:09:47;;;;;;;12.50;4.33;;;;;;;3.91;84.60;102050.00;5071237;28;20256;-87
2021/10/24 07:12:14;;;;;;;9.87;4.30;;;;;;;3.93;85.33;102050.00;5074095;28;20256;-84
2021/10/24 07:14:40;;;;;;;10.80;4.60;;;;;;;3.95;84.88;102041.16;5079811;28;20264;-85
2021/10/24 07:17:07;;;;;;;6.87;3.93;;;;;;;3.98;85.11;102045.50;5069578;28;20290;-85
2021/10/24 07:19:33;;;;;;;7.30;4.33;;;;;;;4.02;85.27;102047.22;5075942;28;20316;-87
2021/10/24 07:22:01;;;;;;;9.80;4.13;;;;;;;4.03;85.35;102044.56;5064298;28;20213;-87
2021/10/24 07:24:28;;;;;;;9.17;4.80;;;;;;;4.08;85.41;102042.75;5065101;28;20205;-86
2021/10/24 07:26:55;;;;;;;9.90;4.40;;;;;;;4.12;84.96;102043.56;5070602;28;20212;-87
2021/10/24 07:29:21;;;;;;;7.53;4.00;;;;;;;4.15;85.00;102039.09;5070826;28;20249;-87
2021/10/24 07:31:48;;;;;;;7.60;4.33;;;;;;;4.21;85.43;102042.56;5065207;28;20229;-86
2021/10/24 07:34:14;;;;;;;10.37;4.80;;;;;;;4.25;84.95;102044.25;5067523;28;20695;-85
2021/10/24 07:36:41;;;;;;;7.37;4.50;;;;;;;4.30;85.14;102043.25;5070040;28;20236;-86
2021/10/24 07:39:09;;;;;;;8.00;4.00;;;;;;;4.36;85.18;102050.22;5075511;28;20315;-86
2021/10/24 07:41:36;;;;;;;6.13;4.27;;;;;;;4.41;85.70;102040.47;5068641;28;20212;-85
2021/10/24 07:44:02;;;;;;;8.90;4.13;;;;;;;4.47;85.58;102038.63;5066200;28;20594;-85
2021/10/24 07:46:29;;;;;;;6.80;4.47;;;;;;;4.55;85.33;102033.22;5077510;28;20224;-85
2021/10/24 07:48:55;;;;;;;8.07;4.23;;;;;;;4.61;85.70;102035.75;5078700;28;20821;-85
2021/10/24 07:51:22;;;;;;;8.00;3.87;;;;;;;4.72;85.48;102041.72;5077121;28;20230;-85
2021/10/24 07:53:48;;;;;;;12.23;4.53;;;;;;;4.79;85.73;102043.38;5073215;28;20210;-85
2021/10/24 07:56:16;;;;;;;6.67;4.13;;;;;;;4.89;85.68;102042.28;5073639;28;20251;-85
2021/10/24 07:58:43;;;;;;;8.63;4.27;;;;;;;5.00;85.81;102041.25;5067543;28;20225;-85
2021/10/24 08:01:10;;;;;;;9.20;4.20;;;;;;;5.08;85.50;102041.97;5071701;28;20205;-85
2021/10/24 08:03:36;;;;;;;7.07;3.60;;;;;;;5.17;85.52;102036.53;5079301;28;20201;-86
2021/10/24 08:06:03;;;;;;;7.70;3.83;;;;;;;5.26;84.98;102036.34;5076022;28;20273;-86
2021/10/24 08:08:29;;;;;;;9.33;4.80;;;;;;;5.37;85.00;102033.50;5088628;28;20225;-87
2021/10/24 08:10:56;;;;;;;7.57;3.83;;;;;;;5.45;84.84;102035.06;5070486;28;20291;-87
2021/10/24 08:13:24;;;;;;;7.97;3.40;;;;;;;5.55;84.93;102031.31;5076971;28;20276;-87
2021/10/24 08:15:51;;;;;;;7.00;3.60;;;;;;;5.67;84.54;102032.88;5072322;28;20652;-87
2021/10/24 08:18:18;;;;;;;7.73;4.03;;;;;;;5.75;84.60;102033.56;5064384;28;20205;-87
2021/10/24 08:20:46;;;;;;;9.27;3.87;;;;;;;5.86;84.32;102035.97;5070998;28;20210;-86
2021/10/24 08:23:13;;;;;;;11.20;4.07;;;;;;;5.97;83.93;102026.06;5071666;28;20208;-84
2021/10/24 08:25:39;;;;;;;7.97;4.13;;;;;;;6.07;83.69;102032.03;5067418;28;20201;-85
2021/10/24 08:28:06;;;;;;;6.60;3.73;;;;;;;6.18;83.39;102022.94;5073076;28;20295;-85
2021/10/24 08:30:34;;;;;;;6.30;4.07;;;;;;;6.31;82.58;102025.28;5080645;28;20308;-86
2021/10/24 08:33:01;;;;;;;6.17;3.23;;;;;;;6.41;82.55;102021.53;5069978;28;20228;-86
2021/10/24 08:35:28;;;;;;;6.90;3.90;;;;;;;6.51;82.17;102015.94;5070789;28;20221;-84
2021/10/24 08:37:55;;;;;;;4.97;3.20;;;;;;;6.64;81.60;102013.84;5069304;28;20212;-84
2021/10/24 08:40:21;;;;;;;6.70;3.23;;;;;;;6.73;81.59;102018.94;5072569;28;20223;-84
2021/10/24 08:42:52;;;;;;;5.97;2.80;;;;;;;6.84;80.86;102002.75;5067919;28;20205;-83
2021/10/24 08:45:19;;;;;;;6.47;3.10;;;;;;;6.93;80.12;101999.88;5067940;28;20211;-85
2021/10/24 08:47:50;;;;;;;7.27;2.57;;;;;;;7.05;79.64;102006.63;5070460;28;20206;-85
2021/10/24 08:50:18;;;;;;;5.50;2.70;;;;;;;7.13;78.71;102002.88;5065348;28;20256;-85
2021/10/24 08:52:50;;;;;;;7.10;3.20;;;;;;;7.25;78.68;102005.16;5073014;28;21173;-86
2021/10/24 08:55:17;;;;;;;6.87;3.50;;;;;;;7.35;78.53;101992.50;5073530;28;20207;-86
2021/10/24 08:57:47;;;;;;;4.70;2.47;;;;;;;7.46;78.05;101997.50;5074761;28;20573;-86
2021/10/24 09:00:13;;;;;;;5.70;2.17;;;;;;;7.56;76.87;101991.88;5073315;28;20232;-87
2021/10/24 09:03:03;;;;;;;5.67;2.83;;;;;;;7.68;76.22;101992.47;5073992;28;20205;-86
2021/10/24 09:05:34;;;;;;;4.97;2.30;;;;;;;7.78;75.75;101991.25;5068544;28;20286;-86
2021/10/24 09:10:37;;;;;;;5.43;2.30;;;;;;;7.96;74.00;101988.91;4988013;28;20204;-73
2021/10/24 09:13:05;;;;;;;2.83;1.97;;;;;;;8.05;73.04;101986.91;4984998;28;20239;-71
2021/10/24 09:15:45;;;;;;;3.40;2.13;;;;;;;8.12;72.17;101978.66;4991107;28;20214;-73
2021/10/24 09:18:14;;;;;;;5.87;2.13;;;;;;;8.21;71.95;101967.78;4985383;28;20207;-73
2021/10/24 09:20:42;;;;;;;3.90;1.97;;;;;;;8.32;71.01;101975.41;4991730;28;20212;-74
2021/10/24 09:23:10;;;;;;;4.23;2.20;;;;;;;8.42;70.84;101968.84;5040691;22;20263;-83
2021/10/24 09:25:49;;;;;;;5.77;2.23;;;;;;;8.52;70.59;101964.13;5063370;28;20606;-82
2021/10/24 09:28:19;;;;;;;3.93;1.83;;;;;;;8.61;69.44;101958.47;5067895;28;20201;-83
2021/10/24 09:30:47;;;;;;;4.93;2.60;;;;;;;8.66;69.71;101949.44;5054937;28;20217;-83
2021/10/24 09:33:17;;;;;;;5.57;2.07;;;;;;;8.75;68.80;101950.94;5054719;28;20225;-83
2021/10/24 09:35:47;;;;;;;3.40;1.60;;;;;;;8.81;68.56;101953.34;5059377;28;20197;-83
2021/10/24 09:38:16;;;;;;;6.87;2.43;;;;;;;8.88;67.65;101949.56;5058344;28;20288;-82
2021/10/24 09:40:46;;;;;;;4.57;1.80;;;;;;;8.95;66.46;101948.44;5057790;28;20212;-83
2021/10/24 09:43:18;;;;;;;5.17;2.20;;;;;;;9.02;66.01;101941.09;5068145;28;20653;-83
2021/10/24 09:45:46;;;;;;;4.30;2.00;;;;;;;9.10;66.15;101954.97;5053774;28;20639;-82
2021/10/24 09:48:16;;;;;;;5.23;1.70;;;;;;;9.15;65.26;101954.78;5055493;28;20577;-83
2021/10/24 09:50:50;;;;;;;3.30;1.77;;;;;;;9.21;64.49;101944.81;5057818;28;20213;-82
2021/10/24 09:53:19;;;;;;;4.10;1.70;;;;;;;9.30;64.60;101933.84;5057171;28;20721;-82
2021/10/24 09:55:48;;;;;;;3.37;1.83;;;;;;;9.35;64.09;101931.88;5054628;28;20660;-82
2021/10/24 09:58:15;;;;;;;3.97;1.90;;;;;;;9.44;63.40;101935.97;5052914;28;20204;-81
2021/10/24 10:00:44;;;;;;;4.63;1.87;;;;;;;9.50;63.15;101945.50;5052532;28;20209;-81
2021/10/24 10:03:11;;;;;;;5.63;1.80;;;;;;;9.52;63.26;101925.03;5059269;28;20578;-81
2021/10/24 10:05:41;;;;;;;4.40;1.70;;;;;;;9.59;62.77;101940.72;5058882;28;20201;-81
2021/10/24 10:08:09;;;;;;;4.70;1.80;;;;;;;9.63;62.20;101931.69;5053133;28;20204;-81
2021/10/24 10:10:40;;;;;;;4.63;1.97;;;;;;;9.70;62.14;101932.28;5059936;28;20205;-81
2021/10/24 10:13:11;;;;;;;5.07;1.97;;;;;;;9.75;61.90;101928.53;5061391;28;20224;-82
2021/10/24 10:15:42;;;;;;;5.40;2.03;;;;;;;9.82;61.18;101929.16;5057313;28;20259;-81
2021/10/24 10:18:10;;;;;;;6.73;2.17;;;;;;;9.83;61.25;101933.56;5055073;28;20206;-82
2021/10/24 10:20:48;;;;;;;4.90;1.93;;;;;;;9.90;61.04;101926.19;5049661;28;20208;-80
2021/10/24 10:23:17;;;;;;;4.57;1.90;;;;;;;9.95;61.32;101925.06;5048910;28;20347;-82
2021/10/24 10:25:45;;;;;;;5.23;1.77;;;;;;;10.01;60.82;101919.53;5056678;28;20723;-81
2021/10/24 10:28:14;;;;;;;3.33;1.60;;;;;;;10.07;60.78;101919.25;5057152;28;20282;-81
2021/10/24 10:30:42;;;;;;;3.87;1.73;;;;;;;10.13;60.87;101918.13;5058032;28;20663;-82
2021/10/24 10:33:33;;;;;;;4.10;1.70;;;;;;;10.17;60.52;101906.44;5052437;28;20230;-81
2021/10/24 10:36:08;;;;;;;4.13;1.70;;;;;;;10.23;60.50;101902.66;5058485;28;20239;-81
2021/10/24 10:38:38;;;;;;;2.90;1.40;;;;;;;10.28;60.33;101898.88;5061633;28;20223;-82
2021/10/24 10:41:05;;;;;;;5.27;1.90;;;;;;;10.32;59.63;101904.97;5056564;28;20205;-81
2021/10/24 10:43:32;;;;;;;3.60;1.93;;;;;;;10.36;59.40;101896.78;5058490;28;20659;-82
2021/10/24 10:46:00;;;;;;;7.17;1.40;;;;;;;10.39;59.23;101888.63;5050169;28;20571;-81
2021/10/24 10:48:37;;;;;;;3.57;1.50;;;;;;;10.44;59.51;101891.97;5054984;28;20233;-82
2021/10/24 10:51:15;;;;;;;3.83;1.50;;;;;;;10.51;59.00;101891.72;5059649;28;20232;-82
2021/10/24 10:53:59;;;;;;;5.70;1.83;;;;;;;10.55;58.73;101886.19;5057742;28;20212;-81
2021/10/24 10:56:32;;;;;;;4.03;2.00;;;;;;;10.57;58.53;101872.81;5059969;28;20205;-83
2021/10/24 10:58:59;;;;;;;6.73;2.23;;;;;;;10.63;58.54;101873.41;5058527;28;20235;-83
2021/10/24 11:01:38;;;;;;;4.20;1.63;;;;;;;10.69;58.08;101882.94;5058676;28;20202;-82
2021/10/24 11:04:19;;;;;;;3.63;1.30;;;;;;;10.71;58.10;101873.94;5058086;28;20226;-82
2021/10/24 11:07:00;;;;;;;3.33;1.87;;;;;;;10.75;58.13;101877.31;5060434;28;20205;-82
2021/10/24 11:09:48;;;;;;;5.07;1.60;;;;;;;10.80;58.10;101872.66;5054369;28;20253;-82
2021/10/24 11:12:40;;;;;;;2.17;1.40;;;;;;;10.82;57.89;101868.13;5056515;28;20295;-82
2021/10/24 11:15:30;;;;;;;3.93;1.50;;;;;;;10.86;57.93;101864.38;5048616;28;20211;-82
2021/10/24 11:18:02;;;;;;;4.23;1.80;;;;;;;10.88;57.33;101862.53;5052744;28;20203;-83
2021/10/24 11:20:43;;;;;;;5.07;1.70;;;;;;;10.90;57.56;101862.44;5050741;28;20206;-84
2021/10/24 11:23:15;;;;;;;3.60;1.70;;;;;;;10.92;57.49;101860.59;5051663;28;20224;-83
2021/10/24 11:25:42;;;;;;;4.30;1.90;;;;;;;10.94;57.56;101853.34;5047266;28;20198;-84
2021/10/24 11:28:20;;;;;;;4.60;1.80;;;;;;;10.96;57.22;101854.16;5043512;28;20202;-84
2021/10/24 11:30:56;;;;;;;4.27;1.67;;;;;;;10.99;57.33;101854.88;5040802;28;20289;-84
2021/10/24 11:33:23;;;;;;;4.43;1.93;;;;;;;11.00;56.86;101842.41;5049475;28;20221;-83
2021/10/24 11:35:49;;;;;;;4.30;1.77;;;;;;;11.01;56.90;101841.50;5045912;28;20210;-83
2021/10/24 11:38:19;;;;;;;5.20;1.50;;;;;;;11.04;57.03;101836.88;5053555;28;20649;-84
2021/10/24 11:40:49;;;;;;;5.87;1.70;;;;;;;11.09;57.26;101834.00;5047424;28;20212;-82